createdAt,value
2022-10-14T00:00:01.778Z,12.27
2022-10-14T00:02:28.119Z,12.30
2022-10-14T00:04:54.466Z,12.31
2022-10-14T00:07:21.004Z,12.30
2022-10-14T00:09:47.527Z,12.22
2022-10-14T00:12:13.862Z,12.26
2022-10-14T00:14:40.221Z,12.26
2022-10-14T00:17:06.567Z,12.34
2022-10-14T00:19:32.923Z,12.34
2022-10-14T00:21:59.272Z,12.33
2022-10-14T00:24:25.688Z,12.21
2022-10-14T00:26:52.024Z,12.26
2022-10-14T00:29:19.280Z,12.23
2022-10-14T00:31:46.714Z,12.22
2022-10-14T00:34:15.701Z,12.27
2022-10-14T00:36:43.091Z,12.27
2022-10-14T00:39:10.242Z,12.28
2022-10-14T00:41:37.319Z,12.33
2022-10-14T00:44:12.834Z,12.31
2022-10-14T00:46:45.013Z,12.28
2022-10-14T00:49:17.880Z,12.32
2022-10-14T00:52:10.643Z,12.31
2022-10-14T00:54:42.298Z,12.27
2022-10-14T00:57:10.115Z,12.19
2022-10-14T00:59:37.280Z,12.12
2022-10-14T01:02:03.731Z,12.07
2022-10-14T01:04:30.615Z,12.07
2022-10-14T01:07:15.218Z,12.07
2022-10-14T01:09:53.875Z,11.94
2022-10-14T01:12:54.294Z,11.97
2022-10-14T01:15:33.498Z,11.94
2022-10-14T01:18:20.347Z,11.94
2022-10-14T01:20:56.438Z,11.94
2022-10-14T01:23:53.444Z,11.94
2022-10-14T01:26:44.606Z,11.92
2022-10-14T01:29:31.119Z,11.92
2022-10-14T01:32:06.386Z,11.93
2022-10-14T01:34:40.841Z,11.90
2022-10-14T01:37:13.275Z,11.96
2022-10-14T01:39:45.826Z,11.94
2022-10-14T01:42:18.601Z,11.95
2022-10-14T01:44:51.726Z,11.91
2022-10-14T01:47:21.054Z,11.94
2022-10-14T01:49:53.988Z,11.93
2022-10-14T01:52:27.344Z,12.04
2022-10-14T01:54:59.055Z,12.04
2022-10-14T01:57:29.630Z,12.10
2022-10-14T01:59:56.779Z,12.06
2022-10-14T02:02:24.513Z,12.08
2022-10-14T02:04:51.638Z,12.07
2022-10-14T02:07:28.262Z,11.98
2022-10-14T02:10:36.486Z,12.01
2022-10-14T02:13:26.679Z,11.96
2022-10-14T02:16:01.906Z,11.92
2022-10-14T02:18:40.255Z,11.90
2022-10-14T02:21:33.796Z,11.86
2022-10-14T02:24:07.885Z,11.91
2022-10-14T02:26:36.868Z,11.87
2022-10-14T02:29:05.001Z,11.83
2022-10-14T02:31:34.468Z,11.76
2022-10-14T02:34:03.992Z,11.78
2022-10-14T02:36:33.185Z,11.75
2022-10-14T02:39:01.131Z,11.84
2022-10-14T02:41:36.180Z,11.84
2022-10-14T02:44:05.188Z,11.85
2022-10-14T02:46:32.529Z,11.87
2022-10-14T02:48:58.964Z,11.80
2022-10-14T02:51:25.723Z,11.76
2022-10-14T02:53:52.055Z,11.83
2022-10-14T02:56:19.478Z,11.84
2022-10-14T02:58:46.204Z,11.84
2022-10-14T03:01:12.571Z,11.72
2022-10-14T03:03:38.919Z,11.70
2022-10-14T03:06:05.503Z,11.70
2022-10-14T03:08:31.837Z,11.73
2022-10-14T03:10:58.449Z,11.71
2022-10-14T03:13:24.814Z,11.73
2022-10-14T03:15:51.406Z,11.77
2022-10-14T03:18:18.405Z,11.67
2022-10-14T03:20:45.004Z,11.68
2022-10-14T03:23:12.217Z,11.61
2022-10-14T03:25:39.372Z,11.62
2022-10-14T03:28:05.852Z,11.63
2022-10-14T03:30:32.223Z,11.63
2022-10-14T03:32:58.583Z,11.61
2022-10-14T03:35:24.977Z,11.65
2022-10-14T03:37:53.552Z,11.65
2022-10-14T03:40:19.942Z,11.63
2022-10-14T03:42:46.979Z,11.66
2022-10-14T03:45:13.407Z,11.64
2022-10-14T03:47:39.757Z,11.67
2022-10-14T03:50:06.540Z,11.67
2022-10-14T03:52:32.961Z,11.64
2022-10-14T03:54:59.502Z,11.64
2022-10-14T03:57:26.003Z,11.64
2022-10-14T03:59:52.380Z,11.65
2022-10-14T04:02:18.954Z,11.60
2022-10-14T04:04:45.569Z,11.58
2022-10-14T04:07:12.006Z,11.50
2022-10-14T04:09:38.396Z,11.49
2022-10-14T04:12:05.362Z,11.40
2022-10-14T04:14:31.737Z,11.36
2022-10-14T04:16:58.058Z,11.31
2022-10-14T04:19:24.458Z,11.29
2022-10-14T04:21:50.783Z,11.23
2022-10-14T04:24:17.143Z,11.18
2022-10-14T04:26:43.679Z,11.15
2022-10-14T04:29:10.010Z,11.11
2022-10-14T04:31:36.360Z,11.14
2022-10-14T04:34:02.789Z,11.05
2022-10-14T04:36:29.115Z,11.06
2022-10-14T04:38:55.466Z,11.11
2022-10-14T04:41:21.898Z,11.07
2022-10-14T04:43:48.270Z,11.05
2022-10-14T04:46:14.617Z,11.03
2022-10-14T04:48:40.939Z,10.98
2022-10-14T04:51:07.301Z,10.91
2022-10-14T04:53:33.673Z,11.02
2022-10-14T04:56:00.034Z,10.92
2022-10-14T04:58:26.362Z,10.80
2022-10-14T05:00:55.055Z,10.80
2022-10-14T05:03:21.551Z,10.88
2022-10-14T05:05:48.003Z,10.76
2022-10-14T05:08:14.458Z,10.65
2022-10-14T05:10:41.104Z,10.57
2022-10-14T05:13:08.013Z,10.64
2022-10-14T05:15:34.725Z,10.62
2022-10-14T05:18:01.176Z,10.65
2022-10-14T05:20:27.820Z,10.74
2022-10-14T05:22:54.403Z,10.79
2022-10-14T05:25:20.921Z,10.84
2022-10-14T05:27:47.453Z,10.92
2022-10-14T05:30:14.301Z,10.99
2022-10-14T05:32:40.815Z,11.05
2022-10-14T05:35:07.599Z,11.15
2022-10-14T05:37:34.146Z,11.27
2022-10-14T05:40:00.656Z,11.38
2022-10-14T05:42:27.357Z,11.43
2022-10-14T05:44:53.833Z,11.40
2022-10-14T05:47:20.497Z,11.48
2022-10-14T05:49:47.118Z,11.50
2022-10-14T05:52:13.606Z,11.53
2022-10-14T05:54:40.231Z,11.52
2022-10-14T05:57:06.805Z,11.62
2022-10-14T05:59:34.843Z,11.64
2022-10-14T06:02:02.451Z,11.54
2022-10-14T06:04:29.250Z,11.57
2022-10-14T06:06:55.782Z,11.67
2022-10-14T06:09:22.268Z,11.65
2022-10-14T06:11:48.876Z,11.67
2022-10-14T06:14:15.354Z,11.75
2022-10-14T06:16:41.862Z,11.73
2022-10-14T06:19:08.457Z,11.78
2022-10-14T06:21:35.044Z,11.81
2022-10-14T06:24:01.576Z,11.89
2022-10-14T06:26:28.198Z,11.85
2022-10-14T06:28:54.837Z,11.91
2022-10-14T06:31:21.489Z,11.89
2022-10-14T06:33:48.023Z,11.92
2022-10-14T06:36:14.575Z,11.97
2022-10-14T06:38:41.040Z,12.09
2022-10-14T06:41:10.431Z,12.14
2022-10-14T06:43:36.908Z,12.16
2022-10-14T06:46:04.952Z,12.27
2022-10-14T06:48:34.671Z,12.29
2022-10-14T06:51:02.332Z,12.32
2022-10-14T06:53:29.608Z,12.38
2022-10-14T06:56:01.370Z,12.38
2022-10-14T06:58:29.431Z,12.36
2022-10-14T07:03:22.615Z,12.33
2022-10-14T07:05:49.148Z,12.36
2022-10-14T07:08:18.115Z,12.37
2022-10-14T07:10:47.402Z,12.40
2022-10-14T07:13:14.975Z,12.37
2022-10-14T07:15:41.489Z,12.38
2022-10-14T07:18:10.352Z,12.49
2022-10-14T07:20:36.947Z,12.52
2022-10-14T07:23:03.422Z,12.58
2022-10-14T07:25:29.927Z,12.63
2022-10-14T07:27:56.625Z,12.65
2022-10-14T07:30:23.248Z,12.68
2022-10-14T07:32:49.966Z,12.68
2022-10-14T07:35:16.932Z,12.75
2022-10-14T07:37:43.647Z,12.80
2022-10-14T07:40:11.228Z,12.83
2022-10-14T07:42:38.161Z,12.93
2022-10-14T07:45:05.804Z,13.00
2022-10-14T07:47:33.677Z,12.98
2022-10-14T07:50:02.159Z,13.07
2022-10-14T07:52:29.031Z,13.09
2022-10-14T07:54:55.648Z,13.25
2022-10-14T07:57:28.458Z,13.33
2022-10-14T07:59:55.367Z,13.41
2022-10-14T08:02:22.259Z,13.54
2022-10-14T08:04:52.800Z,13.67
2022-10-14T08:07:25.626Z,13.81
2022-10-14T08:09:54.864Z,13.88
2022-10-14T08:12:24.205Z,14.03
2022-10-14T08:14:50.978Z,14.10
2022-10-14T08:17:17.607Z,14.15
2022-10-14T08:19:44.518Z,14.19
2022-10-14T08:22:13.330Z,14.26
2022-10-14T08:24:45.022Z,14.33
2022-10-14T08:27:13.915Z,14.46
2022-10-14T08:29:40.841Z,14.49
2022-10-14T08:32:07.513Z,14.55
2022-10-14T08:34:34.330Z,14.67
2022-10-14T08:37:02.226Z,14.78
2022-10-14T08:39:28.799Z,14.81
2022-10-14T08:42:13.761Z,14.84
2022-10-14T08:44:46.395Z,14.91
2022-10-14T08:47:18.651Z,14.98
2022-10-14T08:50:05.658Z,15.03
2022-10-14T08:53:37.398Z,15.06
2022-10-14T08:56:03.131Z,15.21
2022-10-14T08:58:34.726Z,15.36
2022-10-14T09:01:23.342Z,15.38
2022-10-14T09:04:02.729Z,15.48
2022-10-14T09:06:33.447Z,15.53
2022-10-14T09:09:24.086Z,15.57
2022-10-14T09:11:56.726Z,15.60
2022-10-14T09:14:27.128Z,15.65
2022-10-14T09:16:58.582Z,15.70
2022-10-14T09:19:57.491Z,15.71
2022-10-14T09:22:25.417Z,15.68
2022-10-14T09:25:09.465Z,15.64
2022-10-14T09:27:39.533Z,15.75
2022-10-14T09:30:45.661Z,15.79
2022-10-14T09:33:53.565Z,15.86
2022-10-14T09:36:28.687Z,15.91
2022-10-14T09:38:56.329Z,16.04
2022-10-14T09:41:36.695Z,16.07
2022-10-14T09:44:18.673Z,16.08
2022-10-14T09:46:57.571Z,16.17
2022-10-14T09:49:58.865Z,16.05
2022-10-14T09:52:40.317Z,15.89
2022-10-14T09:55:37.360Z,15.95
2022-10-14T09:58:17.237Z,16.01
2022-10-14T10:00:52.338Z,16.09
2022-10-14T10:03:51.039Z,16.12
2022-10-14T10:06:25.728Z,16.25
2022-10-14T10:09:04.758Z,16.40
2022-10-14T10:11:42.620Z,16.73
2022-10-14T10:14:39.917Z,16.64
2022-10-14T10:17:14.086Z,16.90
2022-10-14T10:19:52.359Z,17.17
2022-10-14T10:22:31.474Z,17.21
2022-10-14T10:25:01.150Z,17.12
2022-10-14T10:27:41.541Z,17.28
2022-10-14T10:31:03.578Z,17.03
2022-10-14T10:34:13.733Z,17.09
2022-10-14T10:37:25.141Z,17.34
2022-10-14T10:41:15.941Z,17.36
2022-10-14T10:44:32.077Z,17.24
2022-10-14T10:47:54.478Z,17.27
2022-10-14T10:50:49.394Z,17.57
2022-10-14T10:53:22.031Z,17.73
2022-10-14T10:56:22.556Z,17.66
2022-10-14T11:01:56.337Z,17.57
2022-10-14T11:04:33.513Z,17.51
2022-10-14T11:08:04.380Z,17.59
2022-10-14T11:14:49.738Z,17.63
2022-10-14T11:18:04.717Z,17.79
2022-10-14T11:21:23.072Z,17.78
2022-10-14T11:38:57.147Z,17.91
2022-10-14T11:53:16.705Z,17.92
2022-10-14T11:56:12.448Z,17.83
2022-10-14T11:58:48.934Z,17.92
2022-10-14T12:01:20.873Z,17.91
2022-10-14T12:03:59.968Z,17.87
2022-10-14T12:07:15.911Z,17.83
2022-10-14T12:09:58.994Z,17.90
2022-10-14T12:12:40.115Z,17.93
2022-10-14T12:22:32.622Z,17.91
2022-10-14T12:25:05.780Z,18.00
2022-10-14T12:27:58.903Z,18.07
2022-10-14T12:31:11.318Z,18.01
2022-10-14T12:34:32.704Z,18.00
2022-10-14T12:37:31.434Z,17.90
2022-10-14T12:40:31.991Z,17.97
2022-10-14T12:43:02.686Z,17.91
2022-10-14T12:45:32.628Z,17.90
2022-10-14T12:48:12.458Z,17.68
2022-10-14T12:50:44.724Z,17.67
2022-10-14T12:53:31.812Z,17.57
2022-10-14T12:56:03.329Z,17.45
2022-10-14T12:58:47.646Z,17.52
2022-10-14T13:01:36.578Z,17.53
2022-10-14T13:04:20.978Z,17.60
2022-10-14T13:07:43.756Z,17.70
2022-10-14T13:14:28.245Z,17.69
2022-10-14T13:16:58.043Z,17.70
2022-10-14T13:19:37.889Z,17.70
2022-10-14T13:22:28.377Z,17.72
2022-10-14T13:25:12.084Z,17.73
2022-10-14T13:27:57.306Z,17.73
2022-10-14T13:30:48.704Z,17.79
2022-10-14T13:33:30.252Z,17.89
2022-10-14T13:36:09.504Z,17.79
2022-10-14T13:38:38.389Z,17.82
2022-10-14T13:41:28.324Z,17.65
2022-10-14T13:44:00.145Z,17.59
2022-10-14T13:46:36.980Z,17.51
2022-10-14T13:49:07.087Z,17.44
2022-10-14T13:51:57.726Z,17.30
2022-10-14T13:54:26.821Z,17.26
2022-10-14T14:00:40.815Z,17.45
2022-10-14T14:03:24.799Z,17.66
2022-10-14T14:05:55.619Z,17.73
2022-10-14T14:08:41.482Z,17.69
2022-10-14T14:11:18.661Z,17.67
2022-10-14T14:14:01.208Z,17.79
2022-10-14T14:16:44.848Z,17.74
2022-10-14T14:19:33.458Z,17.70
2022-10-14T14:22:30.651Z,17.68
2022-10-14T14:25:33.605Z,17.58
2022-10-14T14:28:08.321Z,17.45
2022-10-14T14:30:39.574Z,17.39
2022-10-14T14:33:15.729Z,17.41
2022-10-14T14:36:02.054Z,17.42
2022-10-14T14:38:37.109Z,17.37
2022-10-14T14:41:18.209Z,17.35
2022-10-14T14:47:31.690Z,17.21
2022-10-14T14:50:25.518Z,17.21
2022-10-14T14:52:50.542Z,17.17
2022-10-14T14:55:39.992Z,17.16
2022-10-14T14:58:20.720Z,17.07
2022-10-14T15:00:49.061Z,17.00
2022-10-14T15:03:19.018Z,16.94
2022-10-14T15:06:19.178Z,16.91
2022-10-14T15:08:51.092Z,16.88
2022-10-14T15:11:21.076Z,16.85
2022-10-14T15:13:56.781Z,16.89
2022-10-14T15:16:37.308Z,16.89
2022-10-14T15:19:27.227Z,16.85
2022-10-14T15:22:28.857Z,16.90
2022-10-14T15:25:18.066Z,16.85
2022-10-14T15:27:59.230Z,16.78
2022-10-14T15:30:38.759Z,16.71
2022-10-14T15:33:17.694Z,16.65
2022-10-14T15:35:46.722Z,16.65
2022-10-14T15:38:16.640Z,16.50
2022-10-14T15:40:44.781Z,16.51
2022-10-14T15:43:28.501Z,16.50
2022-10-14T15:46:25.526Z,16.54
2022-10-14T15:48:59.543Z,16.58
2022-10-14T15:51:32.831Z,16.64
2022-10-14T15:54:01.951Z,16.61
2022-10-14T15:56:30.529Z,16.63
2022-10-14T15:59:06.171Z,16.53
2022-10-14T16:01:37.288Z,16.52
2022-10-14T16:04:04.925Z,16.45
2022-10-14T16:06:32.637Z,16.48
2022-10-14T16:09:02.780Z,16.48
2022-10-14T16:11:32.844Z,16.52
2022-10-14T16:14:02.568Z,16.42
2022-10-14T16:16:36.924Z,16.41
2022-10-14T16:19:07.055Z,16.40
2022-10-14T16:21:46.882Z,16.42
2022-10-14T16:24:25.367Z,16.48
2022-10-14T16:26:55.830Z,16.41
2022-10-14T16:29:29.240Z,16.38
2022-10-14T16:31:56.729Z,16.50
2022-10-14T16:34:25.100Z,16.49
2022-10-14T16:36:54.435Z,16.52
2022-10-14T16:39:27.436Z,16.47
2022-10-14T16:41:55.817Z,16.40
2022-10-14T16:44:50.963Z,16.32
2022-10-14T16:47:21.319Z,16.39
2022-10-14T16:49:51.988Z,16.45
2022-10-14T16:52:21.547Z,16.40
2022-10-14T16:54:57.226Z,16.40
2022-10-14T16:57:27.990Z,16.42
2022-10-14T16:59:58.535Z,16.38
2022-10-14T17:02:32.022Z,16.31
2022-10-14T17:05:01.307Z,16.21
2022-10-14T17:07:27.939Z,16.29
2022-10-14T17:09:54.774Z,16.30
2022-10-14T17:12:21.745Z,16.31
2022-10-14T17:14:53.659Z,16.29
2022-10-14T17:17:24.141Z,16.20
2022-10-14T17:19:59.982Z,16.24
2022-10-14T17:22:27.007Z,16.24
2022-10-14T17:24:54.976Z,16.01
2022-10-14T17:27:24.295Z,15.62
2022-10-14T17:29:51.346Z,15.38
2022-10-14T17:32:20.870Z,15.20
2022-10-14T17:34:49.590Z,15.03
2022-10-14T17:37:18.029Z,14.88
2022-10-14T17:39:47.839Z,14.83
2022-10-14T17:42:22.223Z,14.81
2022-10-14T17:45:12.761Z,14.79
2022-10-14T17:47:39.628Z,14.81
2022-10-14T17:50:11.964Z,14.78
2022-10-14T17:52:51.311Z,14.75
2022-10-14T17:58:26.048Z,14.78
2022-10-14T18:00:53.022Z,14.82
2022-10-14T18:04:09.968Z,14.77
2022-10-14T18:06:37.387Z,14.79
2022-10-14T18:09:11.493Z,14.83
2022-10-14T18:14:30.534Z,14.81
2022-10-14T18:16:59.383Z,14.78
2022-10-14T18:19:26.284Z,14.69
2022-10-14T18:22:13.582Z,14.73
2022-10-14T18:24:43.948Z,14.83
2022-10-14T18:27:12.819Z,14.84
2022-10-14T18:29:41.355Z,14.78
2022-10-14T18:32:08.257Z,14.76
2022-10-14T18:34:35.033Z,14.81
2022-10-14T18:37:03.720Z,14.83
2022-10-14T18:39:33.096Z,14.77
2022-10-14T18:41:59.836Z,14.73
2022-10-14T18:44:58.119Z,14.70
2022-10-14T18:47:26.805Z,14.52
2022-10-14T18:49:53.769Z,14.49
2022-10-14T18:52:23.069Z,14.46
2022-10-14T18:55:02.927Z,14.46
2022-10-14T18:57:57.041Z,14.41
2022-10-14T19:00:27.065Z,14.36
2022-10-14T19:02:54.787Z,14.37
2022-10-14T19:05:21.585Z,14.33
2022-10-14T19:07:49.791Z,14.36
2022-10-14T19:10:27.226Z,14.30
2022-10-14T19:12:53.858Z,14.30
2022-10-14T19:15:25.369Z,14.27
2022-10-14T19:17:59.997Z,14.32
2022-10-14T19:20:35.583Z,14.26
2022-10-14T19:23:07.899Z,14.22
2022-10-14T19:25:36.130Z,14.28
2022-10-14T19:28:05.381Z,14.30
2022-10-14T19:30:32.082Z,14.25
2022-10-14T19:33:01.068Z,14.18
2022-10-14T19:35:27.743Z,14.23
2022-10-14T19:37:54.492Z,14.18
2022-10-14T19:40:23.805Z,14.11
2022-10-14T19:42:50.588Z,14.16
2022-10-14T19:45:18.733Z,14.15
2022-10-14T19:47:45.509Z,14.17
2022-10-14T19:50:13.494Z,14.14
2022-10-14T19:52:40.126Z,14.11
2022-10-14T19:55:12.042Z,14.19
2022-10-14T19:57:38.762Z,14.13
2022-10-14T20:00:08.024Z,14.11
2022-10-14T20:02:40.435Z,14.16
2022-10-14T20:05:11.295Z,14.16
2022-10-14T20:07:37.889Z,14.18
2022-10-14T20:10:04.843Z,14.18
2022-10-14T20:12:31.345Z,14.16
2022-10-14T20:14:58.002Z,14.22
2022-10-14T20:17:24.720Z,14.26
2022-10-14T20:19:51.368Z,14.34
2022-10-14T20:22:18.110Z,14.32
2022-10-14T20:24:44.859Z,14.36
2022-10-14T20:27:13.017Z,14.32
2022-10-14T20:29:39.671Z,14.31
2022-10-14T20:32:06.811Z,14.34
2022-10-14T20:34:35.687Z,14.32
2022-10-14T20:37:04.073Z,14.34
2022-10-14T20:39:33.174Z,14.30
2022-10-14T20:41:59.973Z,14.36
2022-10-14T20:44:26.880Z,14.38
2022-10-14T20:46:57.998Z,14.38
2022-10-14T20:49:24.637Z,14.31
2022-10-14T20:51:51.157Z,14.35
2022-10-14T20:54:26.435Z,14.31
2022-10-14T20:56:52.972Z,14.27
2022-10-14T20:59:22.194Z,14.27
2022-10-14T21:01:48.864Z,14.28
2022-10-14T21:04:18.629Z,14.24
2022-10-14T21:06:45.170Z,14.23
2022-10-14T21:09:11.829Z,14.26
2022-10-14T21:11:39.332Z,14.24
2022-10-14T21:14:05.768Z,14.28
2022-10-14T21:16:37.552Z,14.25
2022-10-14T21:19:09.465Z,14.20
2022-10-14T21:21:39.805Z,14.23
2022-10-14T21:24:08.222Z,14.28
2022-10-14T21:26:34.822Z,14.27
2022-10-14T21:29:02.707Z,14.20
2022-10-14T21:31:29.849Z,14.17
2022-10-14T21:34:02.740Z,14.20
2022-10-14T21:36:32.442Z,14.07
2022-10-14T21:39:00.923Z,14.08
2022-10-14T21:41:28.180Z,14.17
2022-10-14T21:43:59.328Z,14.21
2022-10-14T21:46:26.369Z,14.15
2022-10-14T21:48:57.283Z,14.17
2022-10-14T21:51:28.957Z,14.14
2022-10-14T21:53:56.206Z,14.17
2022-10-14T21:56:25.324Z,14.15
2022-10-14T21:58:52.086Z,14.14
2022-10-14T22:01:21.747Z,14.10
2022-10-14T22:03:53.817Z,14.06
2022-10-14T22:06:20.492Z,14.08
2022-10-14T22:08:49.020Z,14.10
2022-10-14T22:11:22.265Z,14.09
2022-10-14T22:13:52.508Z,14.06
2022-10-14T22:16:19.733Z,14.02
2022-10-14T22:18:47.726Z,14.06
2022-10-14T22:21:18.742Z,14.08
2022-10-14T22:23:49.365Z,14.02
2022-10-14T22:26:18.386Z,14.02
2022-10-14T22:28:45.131Z,14.01
2022-10-14T22:31:28.140Z,13.98
2022-10-14T22:33:55.151Z,13.99
2022-10-14T22:36:24.560Z,13.98
2022-10-14T22:38:53.331Z,13.88
2022-10-14T22:41:20.860Z,13.91
2022-10-14T22:43:49.327Z,13.93
2022-10-14T22:46:20.119Z,13.95
2022-10-14T22:48:48.171Z,13.97
2022-10-14T22:51:17.525Z,13.99
2022-10-14T22:53:45.665Z,13.97
2022-10-14T22:56:15.628Z,13.95
2022-10-14T22:58:42.205Z,13.94
2022-10-14T23:01:11.115Z,13.88
2022-10-14T23:03:40.827Z,13.91
2022-10-14T23:06:10.812Z,13.86
2022-10-14T23:08:38.113Z,13.87
2022-10-14T23:11:05.863Z,13.89
2022-10-14T23:13:33.040Z,13.90
2022-10-14T23:16:07.177Z,13.92
2022-10-14T23:18:36.534Z,13.94
2022-10-14T23:21:14.631Z,13.89
2022-10-14T23:23:45.172Z,13.93
2022-10-14T23:26:15.729Z,13.90
2022-10-14T23:28:42.943Z,13.88
2022-10-14T23:31:11.802Z,13.89
2022-10-14T23:33:39.016Z,13.88
2022-10-14T23:36:11.562Z,13.88
2022-10-14T23:38:38.822Z,13.86
2022-10-14T23:41:07.384Z,13.84
2022-10-14T23:43:34.248Z,13.85
2022-10-14T23:46:00.750Z,13.81
2022-10-14T23:48:29.271Z,13.80
2022-10-14T23:50:56.182Z,13.82
2022-10-14T23:53:23.534Z,13.72
2022-10-14T23:55:50.063Z,13.74
2022-10-14T23:58:16.508Z,13.84
